Time;durP1;ratioP1;P1;durP2;ratioP2;P2;SDS_P1;SDS_P2;PMS_P1;PMS_P2;Temp;Humidity;BMP_temperature;BMP_pressure;BME280_temperature;BME280_humidity;BME280_pressure;Samples;Min_cycle;Max_cycle;Signal;HPM_P1;HPM_P2
2021/07/21 00:01:50;0.00;0.00;0.62;0.00;0.00;0.62;6.60;5.90;;;27.60;32.90;;;;;;2262138;61;20378;-57
2021/07/21 00:04:36;0.00;0.00;0.62;0.00;0.00;0.62;6.33;5.63;;;27.60;32.90;;;;;;2261433;61;20428;-59
2021/07/21 00:07:20;0.00;0.00;0.62;0.00;0.00;0.62;6.20;5.50;;;27.60;32.90;;;;;;2262102;61;20365;-58
2021/07/21 00:10:08;0.00;0.00;0.62;0.00;0.00;0.62;7.10;6.40;;;27.60;33.00;;;;;;2261874;61;20652;-61
2021/07/21 00:16:15;0.00;0.00;0.62;0.00;0.00;0.62;7.60;6.33;;;27.60;33.00;;;;;;2259017;61;20422;-57
2021/07/21 00:20:05;0.00;0.00;0.62;0.00;0.00;0.62;6.43;5.70;;;27.60;33.10;;;;;;2261442;61;20357;-59
2021/07/21 00:22:11;0.00;0.00;0.62;0.00;0.00;0.62;6.53;5.93;;;27.60;33.20;;;;;;2261888;61;20382;-58
2021/07/21 00:24:55;0.00;0.00;0.62;0.00;0.00;0.62;7.07;6.37;;;27.60;33.20;;;;;;2261840;61;20385;-57
2021/07/21 00:27:40;0.00;0.00;0.62;0.00;0.00;0.62;7.43;6.50;;;27.50;33.20;;;;;;2261346;61;20754;-61
2021/07/21 00:30:25;0.00;0.00;0.62;0.00;0.00;0.62;6.50;5.53;;;27.50;33.20;;;;;;2261995;61;20401;-60
2021/07/21 00:33:11;0.00;0.00;0.62;0.00;0.00;0.62;7.17;5.90;;;27.50;33.20;;;;;;2261875;61;20377;-56
2021/07/21 00:35:55;0.00;0.00;0.62;0.00;0.00;0.62;7.13;6.07;;;27.50;33.20;;;;;;2261558;61;20781;-58
2021/07/21 00:38:42;0.00;0.00;0.62;0.00;0.00;0.62;8.27;5.90;;;27.50;33.20;;;;;;2262137;61;20668;-59
2021/07/21 00:41:26;0.00;0.00;0.62;0.00;0.00;0.62;6.00;5.40;;;27.50;33.20;;;;;;2258109;61;20378;-58
2021/07/21 00:44:11;0.00;0.00;0.62;0.00;0.00;0.62;6.60;6.00;;;27.50;33.20;;;;;;2261742;61;20409;-59
2021/07/21 00:47:00;0.00;0.00;0.62;0.00;0.00;0.62;6.17;5.57;;;27.50;33.20;;;;;;2258676;61;20744;-59
2021/07/21 00:49:45;0.00;0.00;0.62;0.00;0.00;0.62;7.00;5.70;;;27.50;33.20;;;;;;2258087;61;20365;-56
2021/07/21 00:52:32;0.00;0.00;0.62;0.00;0.00;0.62;8.63;7.10;;;27.50;33.20;;;;;;2258580;61;20390;-61
2021/07/21 00:55:19;0.00;0.00;0.62;0.00;0.00;0.62;6.23;5.63;;;27.50;33.30;;;;;;2258603;61;20358;-57
2021/07/21 00:58:09;0.00;0.00;0.62;0.00;0.00;0.62;6.57;5.97;;;27.50;33.30;;;;;;2258672;61;20477;-60
2021/07/21 01:00:55;0.00;0.00;0.62;0.00;0.00;0.62;7.20;6.50;;;27.50;33.30;;;;;;2258659;61;20607;-60
2021/07/21 01:03:40;0.00;0.00;0.62;0.00;0.00;0.62;6.27;5.67;;;27.50;33.40;;;;;;2258149;61;20385;-59
2021/07/21 01:06:25;0.00;0.00;0.62;0.00;0.00;0.62;8.33;6.30;;;27.50;33.40;;;;;;2258679;61;20374;-59
2021/07/21 01:09:11;0.00;0.00;0.62;0.00;0.00;0.62;6.77;6.03;;;27.50;33.40;;;;;;2261548;61;20354;-59
2021/07/21 01:12:21;0.00;0.00;0.62;0.00;0.00;0.62;9.37;6.80;;;27.50;33.40;;;;;;2261153;61;20374;-58
2021/07/21 01:15:12;0.00;0.00;0.62;0.00;0.00;0.62;7.37;6.37;;;27.50;33.50;;;;;;2261985;61;20573;-60
2021/07/21 01:18:02;0.00;0.00;0.62;0.00;0.00;0.62;7.27;6.00;;;27.50;33.50;;;;;;2258091;61;20626;-59
2021/07/21 01:21:36;0.00;0.00;0.62;0.00;0.00;0.62;5.70;4.90;;;27.50;33.60;;;;;;2261598;61;20413;-58
2021/07/21 01:24:27;0.00;0.00;0.62;0.00;0.00;0.62;6.83;6.13;;;27.50;33.60;;;;;;2258449;61;20635;-58
2021/07/21 01:27:28;0.00;0.00;0.62;0.00;0.00;0.62;6.57;5.80;;;27.50;33.60;;;;;;2258180;61;20608;-58
2021/07/21 01:30:16;0.00;0.00;0.62;0.00;0.00;0.62;6.47;5.80;;;27.40;33.60;;;;;;2258648;61;20620;-58
2021/07/21 01:33:16;0.00;0.00;0.62;0.00;0.00;0.62;6.47;5.80;;;27.40;33.50;;;;;;2258139;61;20350;-59
2021/07/21 01:36:08;0.00;0.00;0.62;0.00;0.00;0.62;6.77;6.10;;;27.50;33.60;;;;;;2261674;61;20426;-60
2021/07/21 01:39:04;0.00;0.00;0.62;0.00;0.00;0.62;6.63;5.60;;;27.50;33.60;;;;;;2258456;61;20683;-58
2021/07/21 01:41:58;0.00;0.00;0.62;0.00;0.00;0.62;5.80;5.20;;;27.50;33.60;;;;;;2257929;61;20404;-61
2021/07/21 01:44:48;0.00;0.00;0.62;0.00;0.00;0.62;6.57;5.87;;;27.50;33.60;;;;;;2258675;61;20552;-59
2021/07/21 01:47:35;0.00;0.00;0.62;0.00;0.00;0.62;8.07;6.10;;;27.50;33.60;;;;;;2261190;61;20481;-61
2021/07/21 01:50:24;0.00;0.00;0.62;0.00;0.00;0.62;7.47;6.73;;;27.50;33.70;;;;;;2258210;61;20382;-60
2021/07/21 01:53:09;0.00;0.00;0.62;0.00;0.00;0.62;7.43;6.73;;;27.50;33.70;;;;;;2261789;61;20365;-61
2021/07/21 01:55:55;0.00;0.00;0.62;0.00;0.00;0.62;6.80;6.20;;;27.50;33.70;;;;;;2255312;61;20350;-61
2021/07/21 01:58:40;0.00;0.00;0.62;0.00;0.00;0.62;10.73;7.47;;;27.50;33.90;;;;;;2258723;61;20358;-60
2021/07/21 02:01:37;0.00;0.00;0.62;0.00;0.00;0.62;8.27;6.83;;;27.50;34.00;;;;;;2258206;61;20385;-60
2021/07/21 02:04:31;0.00;0.00;0.62;0.00;0.00;0.62;7.43;6.63;;;27.40;34.00;;;;;;2257949;61;20757;-56
2021/07/21 02:07:16;0.00;0.00;0.62;0.00;0.00;0.62;7.07;6.37;;;27.40;34.20;;;;;;2258730;61;20397;-58
2021/07/21 02:10:06;0.00;0.00;0.62;0.00;0.00;0.62;8.20;7.23;;;27.40;34.10;;;;;;2257927;61;20390;-57
2021/07/21 02:13:13;0.00;0.00;0.62;0.00;0.00;0.62;7.43;6.67;;;27.30;34.20;;;;;;2258703;61;20775;-59
2021/07/21 02:16:20;0.00;0.00;0.62;0.00;0.00;0.62;7.70;6.97;;;27.30;34.30;;;;;;2261424;61;20370;-59
2021/07/21 02:19:08;0.00;0.00;0.62;0.00;0.00;0.62;7.63;6.83;;;27.30;34.40;;;;;;2261034;61;20358;-58
2021/07/21 02:22:04;0.00;0.00;0.62;0.00;0.00;0.62;8.47;7.23;;;27.30;34.40;;;;;;2258452;61;20378;-59
2021/07/21 02:24:54;0.00;0.00;0.62;0.00;0.00;0.62;7.23;6.37;;;27.20;34.30;;;;;;2257850;61;20444;-61
2021/07/21 02:27:45;0.00;0.00;0.62;0.00;0.00;0.62;8.60;6.77;;;27.20;34.30;;;;;;2261614;61;20365;-60
2021/07/21 02:30:30;0.00;0.00;0.62;0.00;0.00;0.62;8.07;7.00;;;27.20;34.40;;;;;;2258049;61;20394;-57
2021/07/21 02:33:21;0.00;0.00;0.62;0.00;0.00;0.62;7.30;6.57;;;27.20;34.60;;;;;;2257841;61;20577;-59
2021/07/21 02:36:07;0.00;0.00;0.62;0.00;0.00;0.62;10.43;7.43;;;27.20;34.70;;;;;;2261704;61;20466;-55
2021/07/21 02:38:54;0.00;0.00;0.62;0.00;0.00;0.62;6.83;6.13;;;27.20;34.70;;;;;;2261320;61;20369;-59
2021/07/21 02:41:42;0.00;0.00;0.62;0.00;0.00;0.62;7.80;6.17;;;27.10;34.50;;;;;;2258010;61;20424;-61
2021/07/21 02:44:27;0.00;0.00;0.62;0.00;0.00;0.62;7.30;6.60;;;27.20;34.70;;;;;;2261644;61;20390;-62
2021/07/21 02:47:12;0.00;0.00;0.62;0.00;0.00;0.62;6.83;6.17;;;27.10;34.60;;;;;;2261016;61;20365;-59
2021/07/21 02:49:58;0.00;0.00;0.62;0.00;0.00;0.62;9.80;7.97;;;27.10;34.70;;;;;;2258158;61;20413;-59
2021/07/21 02:52:57;0.00;0.00;0.62;0.00;0.00;0.62;7.67;6.90;;;27.20;34.80;;;;;;2258145;61;20750;-57
2021/07/21 02:55:59;0.00;0.00;0.62;0.00;0.00;0.62;8.30;7.30;;;27.10;34.80;;;;;;2257850;61;20597;-61
2021/07/21 02:58:51;0.00;0.00;0.62;0.00;0.00;0.62;7.57;6.80;;;27.10;34.80;;;;;;2258400;61;20354;-60
2021/07/21 03:01:39;0.00;0.00;0.62;0.00;0.00;0.62;7.00;6.30;;;27.10;34.90;;;;;;2260844;61;20418;-57
2021/07/21 03:04:27;0.00;0.00;0.62;0.00;0.00;0.62;7.93;6.40;;;27.10;34.80;;;;;;2258182;61;20398;-58
2021/07/21 03:07:28;0.00;0.00;0.62;0.00;0.00;0.62;7.00;6.30;;;27.10;34.90;;;;;;2258199;61;20705;-57
2021/07/21 03:10:16;0.00;0.00;0.62;0.00;0.00;0.62;8.60;6.67;;;27.10;34.90;;;;;;2257788;61;20399;-59
2021/07/21 03:13:20;0.00;0.00;0.62;0.00;0.00;0.62;7.37;6.67;;;27.10;34.90;;;;;;2258413;61;20582;-58
2021/07/21 03:16:14;0.00;0.00;0.62;0.00;0.00;0.62;9.67;8.37;;;27.10;34.90;;;;;;2258841;61;20358;-60
2021/07/21 03:19:08;0.00;0.00;0.62;0.00;0.00;0.62;7.50;6.43;;;27.00;35.00;;;;;;2258778;61;20370;-60
2021/07/21 03:22:03;0.00;0.00;0.62;0.00;0.00;0.62;8.13;7.33;;;27.00;35.00;;;;;;2259091;61;20757;-59
2021/07/21 03:24:52;0.00;0.00;0.62;0.00;0.00;0.62;7.43;6.73;;;27.00;35.00;;;;;;2258371;61;20409;-59
2021/07/21 03:27:45;0.00;0.00;0.62;0.00;0.00;0.62;8.03;7.23;;;27.00;35.00;;;;;;2259082;61;20393;-59
2021/07/21 03:30:38;0.00;0.00;0.62;0.00;0.00;0.62;9.40;7.80;;;27.00;35.20;;;;;;2258798;61;20370;-60
2021/07/21 03:33:32;0.00;0.00;0.62;0.00;0.00;0.62;8.63;7.40;;;26.90;35.20;;;;;;2258722;61;20786;-59
2021/07/21 03:36:26;0.00;0.00;0.62;0.00;0.00;0.62;7.10;6.40;;;26.90;35.50;;;;;;2259156;61;20432;-60
2021/07/21 03:39:32;0.00;0.00;0.62;0.00;0.00;0.62;7.70;6.30;;;26.90;35.40;;;;;;2261713;61;20362;-58
2021/07/21 03:42:40;0.00;0.00;0.62;0.00;0.00;0.62;7.80;6.43;;;26.90;35.40;;;;;;2262274;61;20457;-58
2021/07/21 03:45:33;0.00;0.00;0.62;0.00;0.00;0.62;9.10;7.40;;;26.90;35.50;;;;;;2258751;61;20421;-58
2021/07/21 03:48:23;0.00;0.00;0.62;0.00;0.00;0.62;8.90;7.90;;;26.90;35.70;;;;;;2258630;61;20362;-59
2021/07/21 03:51:30;0.00;0.00;0.62;0.00;0.00;0.62;9.17;7.27;;;26.80;35.70;;;;;;2262159;61;20470;-58
2021/07/21 03:54:33;0.00;0.00;0.62;0.00;0.00;0.62;8.20;7.40;;;26.80;35.80;;;;;;2261473;61;20362;-60
2021/07/21 03:57:33;0.00;0.00;0.62;0.00;0.00;0.62;7.77;6.97;;;26.80;35.80;;;;;;2259091;61;20374;-58
2021/07/21 04:00:21;0.00;0.00;0.62;0.00;0.00;0.62;8.77;7.80;;;26.70;35.80;;;;;;2258699;61;20358;-60
2021/07/21 04:03:14;0.00;0.00;0.62;0.00;0.00;0.62;13.10;7.30;;;26.70;36.50;;;;;;2261889;61;20744;-60
2021/07/21 04:06:09;0.00;0.00;0.62;0.00;0.00;0.62;8.23;7.43;;;26.70;35.90;;;;;;2258955;61;20428;-60
2021/07/21 04:09:19;0.00;0.00;0.62;0.00;0.00;0.62;8.32;7.40;;;26.70;35.90;;;;;;2261056;61;20406;-59
2021/07/21 04:12:07;0.00;0.00;0.62;0.00;0.00;0.62;7.50;5.83;;;26.70;36.30;;;;;;2258929;61;20265;-58
2021/07/21 04:15:21;0.00;0.00;0.62;0.00;0.00;0.62;9.10;7.67;;;26.70;36.10;;;;;;2261919;61;20474;-57
2021/07/21 04:18:10;0.00;0.00;0.62;0.00;0.00;0.62;10.27;7.37;;;26.70;36.10;;;;;;2258707;61;20416;-57
2021/07/21 04:20:59;0.00;0.00;0.62;0.00;0.00;0.62;9.20;7.60;;;26.70;36.30;;;;;;2262088;61;20386;-58
2021/07/21 04:23:44;0.00;0.00;0.62;0.00;0.00;0.62;10.30;7.67;;;26.60;36.20;;;;;;2258549;61;20370;-56
2021/07/21 04:26:33;0.00;0.00;0.62;0.00;0.00;0.62;9.20;8.20;;;26.60;36.30;;;;;;2258946;61;20439;-57
2021/07/21 04:29:25;0.00;0.00;0.62;0.00;0.00;0.62;8.90;7.37;;;26.60;36.50;;;;;;2258613;61;20357;-61
2021/07/21 04:32:10;0.00;0.00;0.62;0.00;0.00;0.62;9.80;7.63;;;26.50;36.30;;;;;;2261231;61;20636;-59
2021/07/21 04:34:58;0.00;0.00;0.62;0.00;0.00;0.62;8.23;7.30;;;26.50;36.40;;;;;;2259036;61;20558;-60
2021/07/21 04:37:47;0.00;0.00;0.62;0.00;0.00;0.62;8.40;7.60;;;26.50;36.40;;;;;;2258142;61;20354;-60
2021/07/21 04:40:32;0.00;0.00;0.62;0.00;0.00;0.62;8.77;7.57;;;26.50;36.40;;;;;;2258501;61;20370;-61
2021/07/21 04:43:36;0.00;0.00;0.62;0.00;0.00;0.62;8.23;7.20;;;26.50;36.50;;;;;;2261779;61;20365;-60
2021/07/21 04:46:23;0.00;0.00;0.62;0.00;0.00;0.62;9.30;8.30;;;26.50;36.40;;;;;;2258094;61;20397;-56
2021/07/21 04:49:11;0.00;0.00;0.62;0.00;0.00;0.62;8.53;7.27;;;26.50;36.40;;;;;;2258915;61;20358;-58
2021/07/21 04:52:03;0.00;0.00;0.62;0.00;0.00;0.62;8.20;6.43;;;26.50;36.50;;;;;;2258327;61;20389;-58
2021/07/21 04:54:51;0.00;0.00;0.62;0.00;0.00;0.62;8.53;7.00;;;26.50;36.50;;;;;;2258258;61;20385;-58
2021/07/21 04:57:35;0.00;0.00;0.62;0.00;0.00;0.62;8.90;7.63;;;26.50;36.50;;;;;;2262067;61;20721;-60
2021/07/21 05:00:31;0.00;0.00;0.62;0.00;0.00;0.62;8.47;7.63;;;26.50;36.60;;;;;;2257866;61;20366;-56
2021/07/21 05:03:25;0.00;0.00;0.62;0.00;0.00;0.62;8.50;7.60;;;26.40;36.70;;;;;;2259000;61;20397;-59
2021/07/21 05:06:15;0.00;0.00;0.62;0.00;0.00;0.62;9.77;7.10;;;26.40;36.80;;;;;;2258346;61;20370;-60
2021/07/21 05:09:07;0.00;0.00;0.62;0.00;0.00;0.62;8.60;7.80;;;26.40;36.80;;;;;;2258063;61;20822;-60
2021/07/21 05:12:04;0.00;0.00;0.62;0.00;0.00;0.62;8.30;7.40;;;26.40;37.00;;;;;;2256184;61;20417;-58
2021/07/21 05:14:55;0.00;0.00;0.62;0.00;0.00;0.62;8.87;7.13;;;26.40;37.00;;;;;;2257772;61;20366;-61
2021/07/21 05:17:59;0.00;0.00;0.62;0.00;0.00;0.62;8.13;7.33;;;26.40;37.10;;;;;;2261198;61;20406;-59
2021/07/21 05:20:49;0.00;0.00;0.62;0.00;0.00;0.62;8.23;7.10;;;26.30;37.10;;;;;;2258152;61;20382;-60
2021/07/21 05:23:36;0.00;0.00;0.62;0.00;0.00;0.62;8.40;7.50;;;26.30;37.10;;;;;;2260762;61;20575;-60
2021/07/21 05:26:23;0.00;0.00;0.62;0.00;0.00;0.62;8.60;6.50;;;26.30;37.20;;;;;;2261862;61;20453;-58
2021/07/21 05:29:17;0.00;0.00;0.62;0.00;0.00;0.62;9.10;5.77;;;26.30;37.30;;;;;;2258407;61;20761;-57
2021/07/21 05:32:06;0.00;0.00;0.62;0.00;0.00;0.62;8.27;7.33;;;26.30;37.40;;;;;;2261575;61;20386;-57
2021/07/21 05:34:50;0.00;0.00;0.62;0.00;0.00;0.62;7.97;6.33;;;26.30;37.30;;;;;;2261942;61;20361;-55
2021/07/21 05:37:43;0.00;0.00;0.62;0.00;0.00;0.62;8.63;7.60;;;26.30;37.30;;;;;;2258193;61;20409;-57
2021/07/21 05:40:28;0.00;0.00;0.62;0.00;0.00;0.62;8.30;6.73;;;26.30;37.40;;;;;;2258592;61;20405;-57
2021/07/21 05:43:29;0.00;0.00;0.62;0.00;0.00;0.62;7.13;6.37;;;26.30;37.30;;;;;;2258806;61;20366;-59
2021/07/21 05:46:20;0.00;0.00;0.62;0.00;0.00;0.62;9.10;7.43;;;26.30;37.30;;;;;;2258154;61;20374;-59
2021/07/21 05:49:05;0.00;0.00;0.62;0.00;0.00;0.62;8.83;6.83;;;26.30;37.20;;;;;;2258852;61;20366;-61
2021/07/21 05:52:10;0.00;0.00;0.62;0.00;0.00;0.62;7.10;6.37;;;26.30;37.30;;;;;;2258224;61;20409;-60
2021/07/21 05:54:56;0.00;0.00;0.62;0.00;0.00;0.62;11.20;8.43;;;26.30;37.40;;;;;;2261506;61;20357;-59
2021/07/21 05:57:44;0.00;0.00;0.62;0.00;0.00;0.62;8.13;7.33;;;26.30;37.50;;;;;;2258607;61;20365;-57
2021/07/21 06:00:29;0.00;0.00;0.62;0.00;0.00;0.62;9.50;8.40;;;26.40;38.30;;;;;;2257900;61;20365;-60
2021/07/21 06:03:22;0.00;0.00;0.62;0.00;0.00;0.62;8.70;7.80;;;26.30;37.60;;;;;;2258680;61;20453;-60
2021/07/21 06:06:25;0.00;0.00;0.62;0.00;0.00;0.62;9.30;8.30;;;26.30;37.70;;;;;;2261793;61;20408;-60
2021/07/21 06:09:18;0.00;0.00;0.62;0.00;0.00;0.62;9.20;7.80;;;26.40;37.80;;;;;;2261437;61;20431;-60
2021/07/21 06:12:32;0.00;0.00;0.62;0.00;0.00;0.62;9.93;8.97;;;26.30;37.80;;;;;;2261090;61;20390;-60
2021/07/21 06:15:17;0.00;0.00;0.62;0.00;0.00;0.62;8.50;7.33;;;26.30;37.80;;;;;;2261077;61;20357;-59
2021/07/21 06:18:02;0.00;0.00;0.62;0.00;0.00;0.62;9.67;8.70;;;26.30;37.90;;;;;;2261696;61;20357;-60
2021/07/21 06:20:57;0.00;0.00;0.62;0.00;0.00;0.62;9.90;8.13;;;26.30;38.00;;;;;;2258517;61;20757;-57
2021/07/21 06:23:41;0.00;0.00;0.62;0.00;0.00;0.62;10.80;7.33;;;26.30;38.00;;;;;;2258078;61;20362;-62
2021/07/21 06:26:28;0.00;0.00;0.62;0.00;0.00;0.62;7.77;6.97;;;26.30;38.00;;;;;;2258522;61;20365;-60
2021/07/21 06:29:19;0.00;0.00;0.62;0.00;0.00;0.62;9.80;8.80;;;26.30;38.00;;;;;;2258219;61;20599;-60
2021/07/21 06:32:09;0.00;0.00;0.62;0.00;0.00;0.62;10.73;7.37;;;26.30;38.00;;;;;;2258295;61;20377;-60
2021/07/21 06:34:54;0.00;0.00;0.62;0.00;0.00;0.62;10.10;6.87;;;26.30;38.00;;;;;;2258580;61;20377;-60
2021/07/21 06:37:40;0.00;0.00;0.62;0.00;0.00;0.62;8.33;7.27;;;26.30;38.10;;;;;;2257891;61;20362;-61
2021/07/21 06:40:27;0.00;0.00;0.62;0.00;0.00;0.62;8.57;7.67;;;26.30;38.10;;;;;;2261490;61;20369;-61
2021/07/21 06:43:12;0.00;0.00;0.62;0.00;0.00;0.62;7.50;6.73;;;26.30;38.10;;;;;;2261855;61;20361;-60
2021/07/21 06:46:16;0.00;0.00;0.62;0.00;0.00;0.62;9.97;8.40;;;26.30;38.20;;;;;;2258225;61;20389;-60
2021/07/21 06:49:05;0.00;0.00;0.62;0.00;0.00;0.62;10.20;8.23;;;26.30;38.20;;;;;;2258691;61;20438;-60
2021/07/21 06:51:49;0.00;0.00;0.62;0.00;0.00;0.62;10.33;9.03;;;26.30;38.20;;;;;;2261857;61;20397;-60
2021/07/21 06:54:44;0.00;0.00;0.62;0.00;0.00;0.62;8.77;7.87;;;26.30;38.20;;;;;;2259269;61;20501;-61
2021/07/21 06:57:38;0.00;0.00;0.62;0.00;0.00;0.62;9.90;8.60;;;26.30;38.20;;;;;;2262469;61;20389;-59
2021/07/21 07:00:42;0.00;0.00;0.62;0.00;0.00;0.62;9.63;7.90;;;26.30;38.30;;;;;;2261620;61;20404;-60
2021/07/21 07:03:45;0.00;0.00;0.62;0.00;0.00;0.62;9.80;8.27;;;26.30;38.40;;;;;;2262531;61;20444;-60
2021/07/21 07:06:48;0.00;0.00;0.62;0.00;0.00;0.62;10.13;7.87;;;26.30;38.50;;;;;;2261573;61;20438;-59
2021/07/21 07:09:53;0.00;0.00;0.62;0.00;0.00;0.62;10.17;8.00;;;26.30;38.40;;;;;;2262512;61;20357;-62
2021/07/21 07:12:51;0.00;0.00;0.62;0.00;0.00;0.62;8.83;8.00;;;26.30;38.40;;;;;;2262561;61;20776;-58
2021/07/21 07:15:37;0.00;0.00;0.62;0.00;0.00;0.62;12.20;8.43;;;26.30;38.40;;;;;;2261994;61;20358;-56
2021/07/21 07:18:22;0.00;0.00;0.62;0.00;0.00;0.62;7.90;7.10;;;26.30;38.40;;;;;;2262452;61;20389;-61
2021/07/21 07:21:06;0.00;0.00;0.62;0.00;0.00;0.62;9.80;8.80;;;26.30;38.40;;;;;;2261673;61;20382;-58
2021/07/21 07:23:53;0.00;0.00;0.62;0.00;0.00;0.62;10.13;9.00;;;26.30;38.40;;;;;;2262232;61;20647;-54
2021/07/21 07:26:39;0.00;0.00;0.62;0.00;0.00;0.62;9.47;8.10;;;26.30;38.50;;;;;;2262444;61;20393;-58
2021/07/21 07:29:24;0.00;0.00;0.62;0.00;0.00;0.62;8.10;7.30;;;26.30;38.40;;;;;;2261445;61;20825;-60
2021/07/21 07:32:09;0.00;0.00;0.62;0.00;0.00;0.62;8.13;6.97;;;26.20;38.40;;;;;;2262314;61;20721;-58
2021/07/21 07:34:54;0.00;0.00;0.62;0.00;0.00;0.62;10.30;7.73;;;26.20;38.50;;;;;;2262198;61;20446;-62
2021/07/21 07:37:38;0.00;0.00;0.62;0.00;0.00;0.62;9.80;8.67;;;26.20;38.50;;;;;;2261690;61;20365;-60
2021/07/21 07:40:23;0.00;0.00;0.62;0.00;0.00;0.62;9.80;7.37;;;26.20;38.50;;;;;;2262239;61;20362;-60
2021/07/21 07:43:11;0.00;0.00;0.62;0.00;0.00;0.62;10.87;8.67;;;26.20;38.60;;;;;;2261754;61;20599;-60
2021/07/21 07:45:57;0.00;0.00;0.62;0.00;0.00;0.62;11.23;8.67;;;26.20;38.60;;;;;;2262132;61;20761;-57
2021/07/21 07:48:42;0.00;0.00;0.62;0.00;0.00;0.62;9.83;7.80;;;26.20;38.70;;;;;;2262304;61;20369;-61
2021/07/21 07:51:29;0.00;0.00;0.62;0.00;0.00;0.62;12.13;8.87;;;26.20;38.70;;;;;;2261331;61;20754;-62
2021/07/21 07:54:15;0.00;0.00;0.62;0.00;0.00;0.62;10.30;8.00;;;26.20;38.90;;;;;;2262283;61;20737;-61
2021/07/21 07:57:00;0.00;0.00;0.62;0.00;0.00;0.62;9.97;7.33;;;26.20;38.90;;;;;;2258877;61;20397;-60
2021/07/21 07:59:46;0.00;0.00;0.62;0.00;0.00;0.62;10.77;8.20;;;26.20;38.80;;;;;;2258411;61;20389;-61
2021/07/21 08:02:41;0.00;0.00;0.62;0.00;0.00;0.62;10.90;8.77;;;26.20;38.80;;;;;;2262201;61;20386;-61
2021/07/21 08:05:25;0.00;0.00;0.62;0.00;0.00;0.62;8.37;7.47;;;26.20;38.80;;;;;;2261805;61;20619;-60
2021/07/21 08:08:10;0.00;0.00;0.62;0.00;0.00;0.62;9.87;8.17;;;26.20;38.70;;;;;;2262063;61;20427;-62
2021/07/21 08:10:55;0.00;0.00;0.62;0.00;0.00;0.62;10.93;7.67;;;26.30;38.70;;;;;;2261801;61;20397;-61
2021/07/21 08:13:40;0.00;0.00;0.62;0.00;0.00;0.62;9.73;7.50;;;26.20;38.60;;;;;;2261577;61;20363;-61
2021/07/21 08:16:26;0.00;0.00;0.62;0.00;0.00;0.62;8.80;7.50;;;26.30;38.60;;;;;;2262177;61;20373;-61
2021/07/21 08:19:10;0.00;0.00;0.62;0.00;0.00;0.62;12.57;9.10;;;26.30;38.60;;;;;;2262051;61;20365;-61
2021/07/21 08:21:57;0.00;0.00;0.62;0.00;0.00;0.62;7.67;6.87;;;26.30;38.50;;;;;;2261479;61;20374;-59
2021/07/21 08:24:42;0.00;0.00;0.62;0.00;0.00;0.62;8.77;7.87;;;26.30;38.50;;;;;;2262043;61;20796;-61
2021/07/21 08:27:26;0.00;0.00;0.62;0.00;0.00;0.62;8.93;7.80;;;26.30;38.50;;;;;;2261815;61;20361;-61
2021/07/21 08:30:13;0.00;0.00;0.62;0.00;0.00;0.62;9.73;8.13;;;26.30;38.50;;;;;;2261773;61;20722;-61
2021/07/21 08:33:00;0.00;0.00;0.62;0.00;0.00;0.62;9.87;7.83;;;26.30;38.40;;;;;;2261997;61;20373;-61
2021/07/21 08:35:44;0.00;0.00;0.62;0.00;0.00;0.62;8.87;7.97;;;26.30;38.40;;;;;;2261447;61;20575;-60
2021/07/21 08:38:29;0.00;0.00;0.62;0.00;0.00;0.62;9.60;8.43;;;26.30;38.40;;;;;;2261984;61;20364;-61
2021/07/21 08:41:14;0.00;0.00;0.62;0.00;0.00;0.62;9.50;7.33;;;26.30;38.30;;;;;;2261911;61;20467;-61
2021/07/21 08:43:59;0.00;0.00;0.62;0.00;0.00;0.62;9.90;8.07;;;26.30;38.30;;;;;;2261580;61;20378;-60
2021/07/21 08:46:44;0.00;0.00;0.62;0.00;0.00;0.62;10.13;8.53;;;26.30;38.20;;;;;;2258995;61;20393;-59
2021/07/21 08:49:30;0.00;0.00;0.62;0.00;0.00;0.62;9.00;7.70;;;26.20;38.20;;;;;;2261708;61;20354;-60
2021/07/21 08:52:16;0.00;0.00;0.62;0.00;0.00;0.62;9.80;8.80;;;26.20;38.00;;;;;;2261541;61;20746;-62
2021/07/21 08:55:02;0.00;0.00;0.62;0.00;0.00;0.62;9.53;8.53;;;26.20;37.90;;;;;;2262030;61;20385;-60
2021/07/21 08:57:48;0.00;0.00;0.62;0.00;0.00;0.62;9.40;8.03;;;26.30;37.80;;;;;;2261295;61;20400;-62
2021/07/21 09:00:33;0.00;0.00;0.62;0.00;0.00;0.62;8.20;7.30;;;26.20;37.80;;;;;;2261855;61;20369;-61
2021/07/21 09:03:19;0.00;0.00;0.62;0.00;0.00;0.62;11.80;6.93;;;26.20;37.70;;;;;;2262078;61;20606;-61
2021/07/21 09:06:05;0.00;0.00;0.62;0.00;0.00;0.62;8.50;7.10;;;26.20;37.70;;;;;;2258115;61;20634;-60
2021/07/21 09:08:50;0.00;0.00;0.62;0.00;0.00;0.62;7.07;6.37;;;26.20;37.70;;;;;;2262044;61;20362;-58
2021/07/21 09:11:35;0.00;0.00;0.62;0.00;0.00;0.62;9.40;7.37;;;26.20;37.70;;;;;;2261389;61;20637;-63
2021/07/21 09:14:20;0.00;0.00;0.62;0.00;0.00;0.62;9.30;7.40;;;26.20;37.60;;;;;;2261573;61;20365;-59
2021/07/21 09:17:08;0.00;0.00;0.62;0.00;0.00;0.62;8.73;7.90;;;26.20;37.60;;;;;;2261984;61;20405;-61
2021/07/21 09:19:53;0.00;0.00;0.62;0.00;0.00;0.62;10.43;6.97;;;26.20;37.50;;;;;;2261431;61;20377;-61
2021/07/21 09:22:42;0.00;0.00;0.62;0.00;0.00;0.62;8.73;7.23;;;26.20;37.50;;;;;;2262210;61;20390;-62
2021/07/21 09:25:29;0.00;0.00;0.62;0.00;0.00;0.62;7.70;6.80;;;26.20;37.40;;;;;;2261973;61;20382;-62
2021/07/21 09:28:14;0.00;0.00;0.62;0.00;0.00;0.62;7.90;6.90;;;26.20;37.10;;;;;;2261277;61;20698;-61
2021/07/21 09:30:59;0.00;0.00;0.62;0.00;0.00;0.62;7.77;6.97;;;26.20;36.90;;;;;;2261815;61;20405;-62
2021/07/21 09:33:45;0.00;0.00;0.62;0.00;0.00;0.62;7.73;6.10;;;26.20;36.80;;;;;;2261715;61;20409;-60
2021/07/21 09:36:30;0.00;0.00;0.62;0.00;0.00;0.62;7.20;6.47;;;26.20;36.80;;;;;;2261564;61;20780;-62
2021/07/21 09:39:16;0.00;0.00;0.62;0.00;0.00;0.62;9.43;7.60;;;26.20;36.70;;;;;;2261976;61;20358;-61
2021/07/21 09:42:01;0.00;0.00;0.62;0.00;0.00;0.62;7.70;6.03;;;26.20;36.60;;;;;;2261427;61;20489;-61
2021/07/21 09:44:46;0.00;0.00;0.62;0.00;0.00;0.62;8.40;6.67;;;26.20;36.50;;;;;;2261931;61;20382;-61
2021/07/21 09:47:31;0.00;0.00;0.62;0.00;0.00;0.62;6.60;5.83;;;26.20;36.50;;;;;;2261989;61;20390;-63
2021/07/21 09:50:23;0.00;0.00;0.62;0.00;0.00;0.62;8.07;6.13;;;26.10;36.50;;;;;;2260996;61;20393;-61
2021/07/21 09:53:12;0.00;0.00;0.62;0.00;0.00;0.62;6.70;6.00;;;26.10;36.60;;;;;;2258753;61;20373;-61
2021/07/21 09:55:59;0.00;0.00;0.62;0.00;0.00;0.62;8.90;7.53;;;26.10;36.90;;;;;;2261483;61;20362;-58
2021/07/21 09:58:43;0.00;0.00;0.62;0.00;0.00;0.62;8.73;7.10;;;26.10;37.00;;;;;;2261521;61;20365;-61
2021/07/21 10:01:30;0.00;0.00;0.62;0.00;0.00;0.62;9.93;6.87;;;26.10;37.00;;;;;;2258576;61;20617;-61
2021/07/21 10:04:33;0.00;0.00;0.62;0.00;0.00;0.62;8.33;7.23;;;26.20;37.10;;;;;;2261465;61;20718;-58
2021/07/21 10:10:22;0.00;0.00;0.62;0.00;0.00;0.62;8.97;6.97;;;26.20;37.30;;;;;;2261694;61;20423;-60
2021/07/21 10:13:08;0.00;0.00;0.62;0.00;0.00;0.62;9.07;7.30;;;26.20;37.30;;;;;;2261339;61;20370;-61
2021/07/21 10:15:54;0.00;0.00;0.62;0.00;0.00;0.62;7.40;6.70;;;26.20;37.30;;;;;;2261773;61;20366;-60
2021/07/21 10:18:39;0.00;0.00;0.62;0.00;0.00;0.62;7.40;6.50;;;26.20;37.40;;;;;;2261333;61;20358;-60
2021/07/21 10:21:23;0.00;0.00;0.62;0.00;0.00;0.62;7.53;6.60;;;26.30;37.40;;;;;;2258250;61;20378;-62
2021/07/21 10:24:09;0.00;0.00;0.62;0.00;0.00;0.62;7.60;6.80;;;26.30;37.40;;;;;;2261826;61;20396;-60
2021/07/21 10:26:55;0.00;0.00;0.62;0.00;0.00;0.62;7.00;6.30;;;26.30;37.40;;;;;;2261000;61;20358;-60
2021/07/21 10:29:42;0.00;0.00;0.62;0.00;0.00;0.62;7.00;6.30;;;26.30;37.30;;;;;;2261853;61;20382;-61
2021/07/21 10:32:32;0.00;0.00;0.62;0.00;0.00;0.62;6.80;6.20;;;26.40;37.40;;;;;;2258601;61;20382;-58
2021/07/21 10:35:18;0.00;0.00;0.62;0.00;0.00;0.62;9.30;6.23;;;26.40;37.40;;;;;;2261184;61;20457;-59
2021/07/21 10:38:03;0.00;0.00;0.62;0.00;0.00;0.62;6.97;6.27;;;26.40;37.30;;;;;;2258594;61;20393;-60
2021/07/21 10:40:50;0.00;0.00;0.62;0.00;0.00;0.62;7.47;6.17;;;26.50;37.30;;;;;;2261178;61;20422;-60
2021/07/21 10:43:35;0.00;0.00;0.62;0.00;0.00;0.62;7.57;6.83;;;26.50;37.30;;;;;;2258336;61;20374;-60
2021/07/21 10:46:42;0.00;0.00;0.62;0.00;0.00;0.62;9.70;6.97;;;26.50;37.30;;;;;;2261692;61;20408;-62
2021/07/21 10:49:45;0.00;0.00;0.62;0.00;0.00;0.62;7.47;6.70;;;26.60;37.40;;;;;;2261108;61;20477;-60
2021/07/21 10:55:27;0.00;0.00;0.62;0.00;0.00;0.62;7.60;6.53;;;26.70;37.40;;;;;;2258150;61;20402;-59
2021/07/21 11:01:25;0.00;0.00;0.62;0.00;0.00;0.62;7.37;6.57;;;26.70;37.30;;;;;;2261627;61;20396;-60
2021/07/21 11:04:11;0.00;0.00;0.62;0.00;0.00;0.62;7.13;6.33;;;26.70;37.30;;;;;;2260985;61;20366;-59
2021/07/21 11:06:56;0.00;0.00;0.62;0.00;0.00;0.62;8.43;6.47;;;26.80;37.30;;;;;;2261727;61;20354;-58
2021/07/21 11:09:42;0.00;0.00;0.62;0.00;0.00;0.62;7.90;6.70;;;26.80;38.00;;;;;;2261681;61;20412;-59
2021/07/21 11:12:32;0.00;0.00;0.62;0.00;0.00;0.62;8.20;6.53;;;26.80;37.20;;;;;;2261350;61;20623;-60
2021/07/21 11:15:34;0.00;0.00;0.62;0.00;0.00;0.62;7.33;6.63;;;26.90;37.20;;;;;;2261615;61;20362;-60
2021/07/21 11:18:42;0.00;0.00;0.62;0.00;0.00;0.62;8.90;7.97;;;26.90;37.20;;;;;;2261060;61;20362;-62
2021/07/21 11:21:54;0.00;0.00;0.62;0.00;0.00;0.62;7.87;7.07;;;27.00;37.20;;;;;;2261690;61;20745;-63
2021/07/21 11:25:13;0.00;0.00;0.62;0.00;0.00;0.62;8.80;7.70;;;27.00;37.10;;;;;;2258459;61;20373;-60